createdAt,value
2019-02-20T00:00:55.526Z,99.90
2019-02-20T00:03:27.961Z,99.90
2019-02-20T00:05:59.055Z,99.90
2019-02-20T00:08:29.742Z,99.90
2019-02-20T00:11:18.432Z,99.90
2019-02-20T00:13:49.211Z,99.90
2019-02-20T00:16:20.885Z,99.90
2019-02-20T00:18:51.631Z,99.90
2019-02-20T00:21:22.389Z,99.90
2019-02-20T00:23:53.057Z,99.90
2019-02-20T00:26:23.820Z,99.90
2019-02-20T00:28:54.517Z,99.90
2019-02-20T00:31:25.144Z,99.90
2019-02-20T00:33:55.850Z,99.90
2019-02-20T00:36:26.506Z,99.90
2019-02-20T00:38:57.202Z,99.90
2019-02-20T00:41:27.889Z,99.90
2019-02-20T00:44:08.118Z,99.90
2019-02-20T00:47:03.728Z,99.90
2019-02-20T00:49:38.516Z,99.90
2019-02-20T00:52:27.786Z,99.90
2019-02-20T00:54:58.481Z,99.90
2019-02-20T00:57:29.190Z,99.90
2019-02-20T01:00:18.031Z,99.90
2019-02-20T01:02:48.776Z,99.90
2019-02-20T01:05:19.604Z,99.90
2019-02-20T01:07:50.369Z,99.90
2019-02-20T01:10:21.066Z,99.90
2019-02-20T01:12:51.831Z,99.90
2019-02-20T01:15:22.650Z,99.90
2019-02-20T01:17:53.434Z,99.90
2019-02-20T01:20:24.120Z,99.90
2019-02-20T01:22:59.811Z,99.90
2019-02-20T01:25:27.235Z,99.90
2019-02-20T01:27:57.991Z,99.90
2019-02-20T01:30:28.705Z,99.90
2019-02-20T01:32:59.502Z,99.90
2019-02-20T01:35:30.217Z,99.90
2019-02-20T01:38:00.991Z,99.90
2019-02-20T01:40:34.460Z,99.90
2019-02-20T01:43:05.207Z,99.90
2019-02-20T01:45:35.936Z,99.90
2019-02-20T01:48:06.710Z,99.90
2019-02-20T01:50:37.412Z,99.90
2019-02-20T01:53:10.570Z,99.90
2019-02-20T01:55:40.498Z,99.90
2019-02-20T01:58:11.275Z,99.90
2019-02-20T02:00:42.201Z,99.90
2019-02-20T02:03:12.937Z,99.90
2019-02-20T02:05:43.674Z,99.90
2019-02-20T02:08:14.381Z,99.90
2019-02-20T02:10:45.115Z,99.90
2019-02-20T02:13:15.911Z,99.90
2019-02-20T02:15:46.628Z,99.90
2019-02-20T02:18:17.355Z,99.90
2019-02-20T02:20:48.101Z,99.90
2019-02-20T02:23:20.113Z,99.90
2019-02-20T02:25:51.124Z,99.90
2019-02-20T02:28:21.850Z,99.90
2019-02-20T02:30:52.557Z,99.90
2019-02-20T02:33:23.242Z,99.90
2019-02-20T02:35:54.028Z,99.90
2019-02-20T02:38:24.788Z,99.90
2019-02-20T02:40:55.541Z,99.90
2019-02-20T02:43:26.302Z,99.90
2019-02-20T02:45:57.029Z,99.90
2019-02-20T02:48:27.783Z,99.90
2019-02-20T02:50:58.555Z,99.90
2019-02-20T02:53:30.950Z,99.90
2019-02-20T02:56:01.703Z,99.90
2019-02-20T02:58:32.404Z,99.90
2019-02-20T03:01:03.151Z,99.90
2019-02-20T03:03:33.907Z,99.90
2019-02-20T03:06:04.647Z,99.90
2019-02-20T03:08:35.423Z,99.90
2019-02-20T03:11:06.159Z,99.90
2019-02-20T03:13:36.914Z,99.90
2019-02-20T03:16:07.620Z,99.90
2019-02-20T03:18:38.395Z,99.90
2019-02-20T03:21:09.101Z,99.90
2019-02-20T03:23:40.371Z,99.90
2019-02-20T03:26:11.464Z,99.90
2019-02-20T03:28:42.221Z,99.90
2019-02-20T03:31:12.913Z,99.90
2019-02-20T03:33:43.686Z,99.90
2019-02-20T03:36:14.388Z,99.90
2019-02-20T03:38:45.150Z,99.90
2019-02-20T03:41:15.863Z,99.90
2019-02-20T03:43:46.717Z,99.90
2019-02-20T03:46:36.510Z,99.90
2019-02-20T03:49:07.274Z,99.90
2019-02-20T03:51:38.010Z,99.90
2019-02-20T03:54:08.785Z,99.90
2019-02-20T03:56:39.725Z,99.90
2019-02-20T03:59:10.769Z,99.90
2019-02-20T04:01:51.002Z,99.90
2019-02-20T04:04:21.755Z,99.90
2019-02-20T04:06:52.450Z,99.90
2019-02-20T04:09:23.209Z,99.90
2019-02-20T04:11:53.951Z,99.90
2019-02-20T04:14:24.678Z,99.90
2019-02-20T04:16:55.394Z,99.90
2019-02-20T04:19:26.162Z,99.90
2019-02-20T04:21:56.885Z,99.90
2019-02-20T04:24:27.613Z,99.90
2019-02-20T04:26:58.354Z,99.90
2019-02-20T04:29:29.071Z,99.90
2019-02-20T04:31:59.842Z,99.90
2019-02-20T04:34:30.578Z,99.90
2019-02-20T04:37:01.344Z,99.90
2019-02-20T04:39:32.091Z,99.90
2019-02-20T04:42:02.869Z,99.90
2019-02-20T04:44:33.574Z,99.90
2019-02-20T04:47:04.389Z,99.90
2019-02-20T04:49:35.137Z,99.90
2019-02-20T04:52:05.892Z,99.90
2019-02-20T04:54:36.588Z,99.90
2019-02-20T04:57:07.344Z,99.90
2019-02-20T04:59:38.154Z,99.90
2019-02-20T05:02:08.877Z,99.90
2019-02-20T05:04:39.572Z,99.90
2019-02-20T05:07:10.329Z,99.90
2019-02-20T05:09:41.089Z,99.90
2019-02-20T05:12:11.811Z,99.90
2019-02-20T05:14:42.517Z,99.90
2019-02-20T05:17:13.308Z,99.90
2019-02-20T05:19:44.010Z,99.90
2019-02-20T05:22:14.758Z,99.90
2019-02-20T05:24:45.483Z,99.90
2019-02-20T05:27:16.252Z,99.90
2019-02-20T05:29:46.958Z,99.90
2019-02-20T05:32:17.731Z,99.90
2019-02-20T05:34:48.468Z,99.90
2019-02-20T05:37:19.195Z,99.90
2019-02-20T05:39:49.924Z,99.90
2019-02-20T05:42:20.667Z,99.90
2019-02-20T05:44:51.413Z,99.90
2019-02-20T05:47:22.170Z,99.90
2019-02-20T05:49:52.934Z,99.90
2019-02-20T05:52:23.702Z,99.90
2019-02-20T05:54:54.439Z,99.90
2019-02-20T05:57:25.213Z,99.90
2019-02-20T05:59:55.920Z,99.90
2019-02-20T06:02:26.695Z,99.90
2019-02-20T06:04:57.441Z,99.90
2019-02-20T06:07:28.117Z,99.90
2019-02-20T06:09:58.886Z,99.90
2019-02-20T06:12:29.629Z,99.90
2019-02-20T06:15:00.386Z,99.90
2019-02-20T06:17:31.092Z,99.90
2019-02-20T06:20:01.838Z,99.90
2019-02-20T06:22:32.648Z,99.90
2019-02-20T06:25:03.413Z,99.90
2019-02-20T06:27:34.167Z,99.90
2019-02-20T06:30:07.274Z,99.90
2019-02-20T06:32:37.980Z,99.90
2019-02-20T06:35:08.708Z,99.90
2019-02-20T06:37:39.463Z,99.90
2019-02-20T06:40:10.402Z,99.90
2019-02-20T06:42:41.155Z,99.90
2019-02-20T06:45:11.961Z,99.90
2019-02-20T06:47:42.669Z,99.90
2019-02-20T06:50:13.453Z,99.90
2019-02-20T06:52:44.191Z,99.90
2019-02-20T06:55:14.996Z,99.90
2019-02-20T06:57:45.703Z,99.90
2019-02-20T07:00:16.470Z,99.90
2019-02-20T07:02:47.243Z,99.90
2019-02-20T07:05:51.509Z,99.90
2019-02-20T07:09:07.386Z,99.90
2019-02-20T07:11:58.299Z,99.90
2019-02-20T07:15:01.402Z,99.90
2019-02-20T07:17:46.030Z,99.90
2019-02-20T07:20:52.560Z,99.90
2019-02-20T07:24:17.245Z,99.90
2019-02-20T07:27:25.239Z,99.90
2019-02-20T07:30:03.257Z,99.90
2019-02-20T07:32:34.002Z,99.90
2019-02-20T07:35:05.108Z,99.90
2019-02-20T07:37:35.958Z,99.90
2019-02-20T07:40:08.983Z,99.90
2019-02-20T07:42:39.779Z,99.90
2019-02-20T07:45:12.737Z,99.90
2019-02-20T07:47:43.534Z,99.90
2019-02-20T07:50:16.778Z,99.90
2019-02-20T07:52:47.745Z,99.90
2019-02-20T07:55:18.670Z,99.90
2019-02-20T07:57:50.324Z,99.90
2019-02-20T08:02:14.031Z,99.90
2019-02-20T08:04:44.840Z,99.90
2019-02-20T08:07:15.563Z,99.90
2019-02-20T08:09:46.189Z,99.90
2019-02-20T08:12:16.979Z,99.90
2019-02-20T08:14:47.633Z,99.90
2019-02-20T08:17:18.386Z,99.70
2019-02-20T08:19:49.069Z,96.20
2019-02-20T08:22:32.717Z,94.40
2019-02-20T08:25:03.572Z,93.70
2019-02-20T08:27:34.315Z,94.10
2019-02-20T08:30:07.343Z,94.30
2019-02-20T08:32:38.109Z,95.30
2019-02-20T08:35:09.117Z,95.10
2019-02-20T08:37:39.933Z,96.30
2019-02-20T08:40:13.168Z,94.50
2019-02-20T08:42:44.238Z,94.70
2019-02-20T08:45:14.970Z,92.70
2019-02-20T08:47:45.727Z,91.00
2019-02-20T08:50:16.953Z,91.30
2019-02-20T08:52:47.699Z,91.50
2019-02-20T08:55:19.005Z,91.80
2019-02-20T08:57:49.882Z,91.10
2019-02-20T09:00:21.075Z,91.30
2019-02-20T09:02:51.898Z,89.60
2019-02-20T09:05:22.672Z,89.00
2019-02-20T09:07:53.404Z,90.00
2019-02-20T09:10:24.145Z,86.30
2019-02-20T09:12:54.889Z,85.30
2019-02-20T09:15:25.615Z,85.10
2019-02-20T09:17:56.361Z,81.70
2019-02-20T09:20:27.097Z,81.90
2019-02-20T09:22:57.844Z,82.20
2019-02-20T09:25:28.635Z,83.90
2019-02-20T09:27:59.411Z,84.80
2019-02-20T09:30:30.291Z,84.50
2019-02-20T09:33:01.247Z,84.80
2019-02-20T09:35:31.965Z,83.50
2019-02-20T09:38:02.561Z,84.50
2019-02-20T09:40:33.287Z,81.70
2019-02-20T09:43:04.042Z,77.30
2019-02-20T09:45:41.648Z,71.90
2019-02-20T09:48:07.090Z,66.30
2019-02-20T09:50:37.911Z,63.20
2019-02-20T09:53:08.644Z,62.60
2019-02-20T09:55:39.304Z,62.70
2019-02-20T09:58:10.041Z,62.60
2019-02-20T10:00:40.698Z,62.50
2019-02-20T10:03:11.409Z,62.80
2019-02-20T10:05:42.180Z,63.10
2019-02-20T10:08:12.924Z,64.10
2019-02-20T10:10:43.513Z,64.20
2019-02-20T10:13:14.171Z,62.10
2019-02-20T10:15:44.897Z,61.30
2019-02-20T10:18:15.662Z,62.30
2019-02-20T10:20:46.309Z,62.80
2019-02-20T10:23:16.964Z,63.50
2019-02-20T10:25:47.700Z,61.70
2019-02-20T10:28:18.447Z,59.90
2019-02-20T10:30:49.142Z,60.70
2019-02-20T10:33:21.346Z,62.50
2019-02-20T10:35:53.564Z,63.50
2019-02-20T10:38:24.343Z,62.70
2019-02-20T10:41:13.355Z,63.50
2019-02-20T10:43:44.100Z,65.00
2019-02-20T10:46:14.806Z,65.30
2019-02-20T10:48:45.573Z,66.00
2019-02-20T10:51:16.331Z,67.60
2019-02-20T10:53:49.356Z,68.60
2019-02-20T10:59:13.104Z,70.00
2019-02-20T11:01:43.900Z,68.20
2019-02-20T11:04:15.737Z,66.70
2019-02-20T11:06:46.443Z,67.20
2019-02-20T11:09:17.225Z,67.40
2019-02-20T11:11:47.931Z,67.90
2019-02-20T11:14:18.662Z,66.60
2019-02-20T11:16:49.330Z,66.80
2019-02-20T11:19:20.065Z,67.80
2019-02-20T11:21:50.791Z,67.20
2019-02-20T11:24:21.531Z,67.50
2019-02-20T11:26:54.985Z,68.20
2019-02-20T11:29:24.620Z,67.90
2019-02-20T11:31:56.515Z,69.20
2019-02-20T11:34:27.423Z,68.70
2019-02-20T11:36:58.070Z,69.40
2019-02-20T11:39:37.289Z,69.30
2019-02-20T11:42:01.077Z,68.30
2019-02-20T11:44:31.759Z,68.50
2019-02-20T11:47:02.605Z,69.30
2019-02-20T11:49:33.362Z,68.70
2019-02-20T11:52:04.108Z,69.90
2019-02-20T11:54:34.806Z,71.00
2019-02-20T11:57:05.531Z,70.40
2019-02-20T11:59:36.387Z,70.40
2019-02-20T12:02:07.224Z,70.40
2019-02-20T12:04:37.929Z,70.80
2019-02-20T12:07:08.669Z,68.80
2019-02-20T12:09:39.403Z,68.20
2019-02-20T12:12:10.154Z,66.90
2019-02-20T12:14:40.910Z,68.00
2019-02-20T12:17:11.652Z,69.10
2019-02-20T12:22:03.954Z,68.50
2019-02-20T12:24:34.739Z,68.80
2019-02-20T12:27:05.495Z,70.20
2019-02-20T12:29:36.132Z,70.80
2019-02-20T12:32:06.943Z,69.20
2019-02-20T12:34:37.614Z,66.40
2019-02-20T12:37:08.270Z,66.30
2019-02-20T12:39:38.977Z,66.60
2019-02-20T12:42:10.629Z,65.60
2019-02-20T12:44:41.328Z,62.90
2019-02-20T12:47:12.056Z,62.30
2019-02-20T12:49:43.754Z,61.50
2019-02-20T12:52:14.468Z,61.50
2019-02-20T12:54:45.196Z,60.90
2019-02-20T12:57:15.952Z,60.90
2019-02-20T12:59:46.569Z,60.90
2019-02-20T13:02:17.326Z,60.40
2019-02-20T13:04:48.002Z,60.70
2019-02-20T13:07:18.677Z,59.40
2019-02-20T13:09:50.179Z,58.40
2019-02-20T13:12:21.141Z,58.20
2019-02-20T13:14:51.778Z,57.40
2019-02-20T13:17:22.434Z,57.40
2019-02-20T13:19:53.109Z,56.80
2019-02-20T13:22:23.786Z,56.10
2019-02-20T13:25:12.417Z,55.80
2019-02-20T13:28:00.897Z,53.00
2019-02-20T13:30:50.213Z,53.90
2019-02-20T13:33:38.921Z,54.80
2019-02-20T13:36:27.959Z,53.70
2019-02-20T13:39:16.520Z,50.40
2019-02-20T13:42:04.969Z,49.60
2019-02-20T13:44:54.242Z,51.60
2019-02-20T13:47:43.752Z,53.30
2019-02-20T13:50:32.383Z,56.20
2019-02-20T13:53:20.773Z,55.20
2019-02-20T13:56:10.004Z,55.20
2019-02-20T13:58:40.781Z,56.90
2019-02-20T14:01:11.703Z,56.10
2019-02-20T14:03:42.495Z,57.30
2019-02-20T14:06:15.045Z,56.10
2019-02-20T14:08:45.876Z,55.80
2019-02-20T14:11:16.712Z,54.30
2019-02-20T14:13:47.514Z,52.30
2019-02-20T14:16:18.335Z,53.50
2019-02-20T14:18:49.133Z,55.30
2019-02-20T14:21:19.969Z,56.40
2019-02-20T14:23:51.086Z,57.20
2019-02-20T14:26:21.063Z,57.00
2019-02-20T14:28:51.857Z,57.40
2019-02-20T14:31:22.679Z,57.00
2019-02-20T14:33:53.452Z,57.70
2019-02-20T14:36:24.276Z,58.50
2019-02-20T14:38:55.063Z,58.60
2019-02-20T14:41:25.903Z,58.80
2019-02-20T14:43:56.694Z,59.10
2019-02-20T14:46:27.553Z,59.00
2019-02-20T14:49:02.388Z,59.90
2019-02-20T14:51:54.762Z,60.20
2019-02-20T14:54:26.062Z,60.40
2019-02-20T14:56:58.116Z,59.80
2019-02-20T14:59:30.253Z,58.30
2019-02-20T15:02:02.639Z,59.30
2019-02-20T15:04:38.087Z,60.20
2019-02-20T15:07:09.307Z,60.60
2019-02-20T15:09:41.991Z,60.80
2019-02-20T15:12:16.247Z,60.50
2019-02-20T15:15:10.106Z,61.70
2019-02-20T15:17:41.187Z,62.30
2019-02-20T15:20:15.293Z,63.00
2019-02-20T15:22:47.988Z,63.20
2019-02-20T15:25:31.618Z,63.60
2019-02-20T15:28:06.116Z,64.10
2019-02-20T15:30:38.844Z,65.00
2019-02-20T15:33:12.440Z,64.90
2019-02-20T15:35:46.647Z,65.40
2019-02-20T15:38:21.778Z,65.50
2019-02-20T15:40:53.809Z,65.40
2019-02-20T15:43:30.714Z,65.80
2019-02-20T15:46:05.843Z,65.20
2019-02-20T15:48:40.917Z,65.50
2019-02-20T15:51:30.530Z,65.90
2019-02-20T15:54:14.352Z,66.60
2019-02-20T15:56:49.734Z,66.70
2019-02-20T15:59:24.960Z,65.60
2019-02-20T16:02:01.524Z,65.60
2019-02-20T16:04:34.846Z,64.80
2019-02-20T16:07:07.530Z,65.30
2019-02-20T16:09:40.318Z,65.70
2019-02-20T16:12:13.365Z,66.30
2019-02-20T16:14:56.553Z,66.80
2019-02-20T16:17:29.299Z,67.10
2019-02-20T16:20:02.027Z,67.40
2019-02-20T16:22:54.188Z,67.50
2019-02-20T16:25:26.915Z,68.00
2019-02-20T16:27:59.552Z,68.30
2019-02-20T16:30:32.281Z,69.10
2019-02-20T16:33:15.260Z,69.20
2019-02-20T16:35:48.536Z,70.20
2019-02-20T16:38:32.544Z,70.90
2019-02-20T16:41:05.661Z,70.70
2019-02-20T16:43:49.818Z,71.70
2019-02-20T16:46:22.598Z,74.10
2019-02-20T16:48:55.306Z,74.50
2019-02-20T16:51:38.225Z,75.10
2019-02-20T16:54:10.992Z,76.70
2019-02-20T16:56:43.708Z,77.90
2019-02-20T16:59:14.549Z,78.70
2019-02-20T17:01:45.882Z,81.20
2019-02-20T17:04:25.333Z,82.20
2019-02-20T17:06:56.241Z,82.30
2019-02-20T17:09:27.083Z,84.00
2019-02-20T17:11:58.029Z,84.90
2019-02-20T17:14:28.894Z,86.90
2019-02-20T17:16:59.781Z,88.10
2019-02-20T17:19:30.637Z,88.40
2019-02-20T17:22:01.534Z,89.70
2019-02-20T17:24:33.403Z,89.20
2019-02-20T17:27:04.558Z,90.20
2019-02-20T17:29:35.424Z,91.40
2019-02-20T17:32:06.299Z,91.20
2019-02-20T17:34:37.137Z,92.80
2019-02-20T17:37:08.082Z,93.90
2019-02-20T17:39:38.770Z,94.40
2019-02-20T17:42:09.525Z,94.30
2019-02-20T17:44:42.083Z,94.80
2019-02-20T17:47:13.199Z,92.70
2019-02-20T17:49:43.924Z,93.60
2019-02-20T17:52:14.704Z,93.90
2019-02-20T17:54:45.382Z,96.50
2019-02-20T17:57:16.142Z,95.50
2019-02-20T17:59:46.861Z,95.30
2019-02-20T18:02:17.593Z,92.80
2019-02-20T18:04:48.333Z,95.70
2019-02-20T18:07:19.041Z,94.20
2019-02-20T18:09:49.748Z,94.10
2019-02-20T18:12:20.442Z,95.10
2019-02-20T18:14:51.213Z,95.60
2019-02-20T18:17:23.583Z,98.30
2019-02-20T18:19:54.481Z,98.20
2019-02-20T18:22:25.206Z,98.10
2019-02-20T18:24:55.933Z,98.30
2019-02-20T18:27:26.642Z,97.90
2019-02-20T18:29:57.472Z,97.90
2019-02-20T18:32:28.271Z,97.70
2019-02-20T18:34:59.063Z,97.90
2019-02-20T18:37:29.857Z,99.40
2019-02-20T18:40:00.605Z,99.10
2019-02-20T18:42:31.377Z,98.90
2019-02-20T18:45:02.178Z,98.10
2019-02-20T18:47:34.021Z,99.90
2019-02-20T18:50:04.957Z,99.90
2019-02-20T18:52:54.006Z,99.90
2019-02-20T18:56:02.269Z,99.90
2019-02-20T18:58:51.262Z,99.10
2019-02-20T19:01:41.065Z,99.90
2019-02-20T19:04:30.150Z,99.90
2019-02-20T19:07:19.346Z,99.90
2019-02-20T19:10:11.783Z,99.90
2019-02-20T19:13:32.495Z,99.70
2019-02-20T19:16:50.238Z,99.50
2019-02-20T19:19:40.730Z,99.90
2019-02-20T19:22:37.678Z,99.90
2019-02-20T19:26:22.895Z,99.40
2019-02-20T19:29:25.778Z,99.90
2019-02-20T19:32:27.056Z,99.90
2019-02-20T19:35:13.056Z,99.90
2019-02-20T19:38:19.797Z,99.90
2019-02-20T19:42:00.572Z,99.90
2019-02-20T19:45:16.845Z,99.80
2019-02-20T19:48:11.981Z,99.90
2019-02-20T19:50:57.289Z,99.90
2019-02-20T19:53:48.535Z,99.90
2019-02-20T19:57:00.447Z,99.90
2019-02-20T20:00:30.367Z,99.90
2019-02-20T20:03:39.873Z,99.90
2019-02-20T20:06:38.384Z,99.90
2019-02-20T20:09:24.307Z,99.90
2019-02-20T20:12:38.592Z,99.90
2019-02-20T20:15:27.078Z,99.90
2019-02-20T20:18:41.108Z,99.90
2019-02-20T20:21:55.986Z,99.90
2019-02-20T20:25:09.694Z,99.90
2019-02-20T20:28:06.562Z,99.90
2019-02-20T20:31:06.276Z,99.90
2019-02-20T20:34:20.173Z,99.90
2019-02-20T20:37:16.342Z,99.90
2019-02-20T20:40:19.929Z,99.90
2019-02-20T20:43:20.396Z,99.90
2019-02-20T20:46:27.429Z,99.90
2019-02-20T20:49:25.577Z,99.90
2019-02-20T20:52:55.869Z,99.90
2019-02-20T20:56:08.994Z,99.90
2019-02-20T20:59:17.477Z,99.90
2019-02-20T21:02:13.783Z,99.90
2019-02-20T21:05:49.884Z,99.90
2019-02-20T21:08:47.716Z,99.90
2019-02-20T21:12:04.246Z,99.90
2019-02-20T21:15:16.112Z,99.90
2019-02-20T21:18:49.026Z,99.90
2019-02-20T21:21:32.021Z,99.90
2019-02-20T21:24:43.716Z,99.90
2019-02-20T21:27:52.344Z,99.90
2019-02-20T21:31:05.779Z,99.90
2019-02-20T21:34:15.237Z,99.90
2019-02-20T21:37:03.124Z,99.90
2019-02-20T21:39:45.743Z,99.90
2019-02-20T21:42:53.418Z,99.90
2019-02-20T21:45:51.451Z,99.90
2019-02-20T21:49:06.337Z,99.90
2019-02-20T21:52:10.152Z,99.90
2019-02-20T21:55:37.752Z,99.90
2019-02-20T21:58:35.226Z,99.90
2019-02-20T22:01:27.495Z,99.90
2019-02-20T22:04:42.253Z,99.90
2019-02-20T22:08:05.582Z,99.90
2019-02-20T22:11:14.157Z,99.90
2019-02-20T22:14:20.392Z,99.90
2019-02-20T22:17:16.269Z,99.90
2019-02-20T22:20:39.823Z,99.90
2019-02-20T22:23:50.392Z,99.90
2019-02-20T22:27:05.185Z,99.90
2019-02-20T22:30:04.440Z,99.90
2019-02-20T22:33:10.423Z,99.90
2019-02-20T22:36:29.122Z,99.90
2019-02-20T22:39:42.888Z,99.90
2019-02-20T22:42:56.393Z,99.90
2019-02-20T22:45:56.618Z,99.90
2019-02-20T22:48:36.236Z,99.90
2019-02-20T22:51:36.798Z,99.90
2019-02-20T22:54:43.594Z,99.90
2019-02-20T22:57:57.021Z,99.90
2019-02-20T23:01:05.647Z,99.90
2019-02-20T23:04:25.314Z,99.90
2019-02-20T23:07:20.946Z,99.90
2019-02-20T23:10:21.630Z,99.90
2019-02-20T23:13:20.282Z,99.90
2019-02-20T23:15:50.980Z,99.90
2019-02-20T23:18:21.715Z,99.90
2019-02-20T23:20:52.411Z,99.90
2019-02-20T23:23:23.097Z,99.90
2019-02-20T23:25:53.813Z,99.90
2019-02-20T23:28:24.512Z,99.90
2019-02-20T23:30:55.097Z,99.90
2019-02-20T23:33:25.902Z,99.90
2019-02-20T23:35:56.556Z,99.90
2019-02-20T23:38:27.235Z,99.90
2019-02-20T23:40:57.931Z,99.90
2019-02-20T23:44:15.388Z,99.90
2019-02-20T23:46:46.175Z,99.90
2019-02-20T23:49:16.921Z,99.90
2019-02-20T23:51:47.594Z,99.90
2019-02-20T23:54:18.294Z,99.90
2019-02-20T23:56:49.080Z,99.90
2019-02-20T23:59:19.816Z,99.90
